Teddy Meyer — WDF9635 — position and weather

sailwx.info

Track history (hours):
 
Tides and Currents Weather Stations Pressure Air Temp Water Temp Dewpoint Dewpoint Depression Visibility Wind Speed Wind Dir Waves Ship Positions

Teddy Meyer

Owner: LeBeouf Bros. Towing, LLC, Houma, LA. More information available from US FCC via Universal Licensing System and Coast Guard Vessel Documentation Center.

Last reported at 2016-Aug-03 15:19 UTC. Time now 2016-Aug-27 08:12 UTC.
Position N 29°47' W 090°01'.
Warning: this ship's position is 23 days out of date.

; draft 3 m.

MMSI: 367507220.

Date/timePositionNaut miles runAvg speedWind from/ knotsBaromVisibWave heightAir tempDewpointWater temp
2016-Aug-03 15:19N 29°47' W 090°01'6 8.4
2016-Aug-03 14:34N 29°53' W 089°58'3 2.8
2016-Aug-03 13:34N 29°56' W 089°58'6 5.6
2016-Aug-03 12:34N 29°55' W 090°05'4 3.5
2016-Aug-03 11:33N 29°57' W 090°08'  
2016-Jul-31 18:29N 29°57' W 090°10'4 4.8
2016-Jul-31 17:33N 29°55' W 090°05'4 4.4
2016-Jul-31 16:34N 29°58' W 090°02'1 0.5
2016-Jul-31 15:34N 29°58' W 090°01'2 2.4
2016-Jul-31 14:33N 29°60' W 089°59'0 0.0
2016-Jul-31 13:33N 29°60' W 089°59'0 0.0
2016-Jul-31 12:33N 29°60' W 089°59'0 0.0
2016-Jul-31 11:33N 29°60' W 089°59'0 0.0
2016-Jul-31 10:34N 29°60' W 089°59'0 0.0
2016-Jul-31 09:33N 29°60' W 089°59'0 0.0
2016-Jul-31 08:34N 29°60' W 089°59'0 0.0
2016-Jul-31 07:34N 29°60' W 089°59'0 0.0
2016-Jul-31 06:33N 29°60' W 089°59'0 0.0
2016-Jul-31 05:34N 29°60' W 089°59'0 0.0
2016-Jul-31 04:33N 29°60' W 089°59'0 0.0
2016-Jul-31 03:34N 29°60' W 089°59'0 0.0
2016-Jul-31 02:34N 29°60' W 089°59'0 0.0
2016-Jul-31 01:33N 29°60' W 089°59'0 0.0
2016-Jul-31 00:33N 29°60' W 089°59'0 0.0
2016-Jul-30 22:33N 29°60' W 089°59'0 0.0
2016-Jul-30 21:34N 29°60' W 089°59'0 0.0
2016-Jul-30 20:33N 29°60' W 089°59'0 0.0
2016-Jul-30 19:34N 29°60' W 089°59'0 0.0
2016-Jul-30 18:33N 29°60' W 089°59'0 0.0
2016-Jul-30 17:34N 29°60' W 089°59'0 0.0
2016-Jul-30 16:34N 29°60' W 089°59'0 0.0
2016-Jul-30 15:33N 29°60' W 089°59'0 0.0
2016-Jul-30 14:34N 29°60' W 089°59'0 0.0
2016-Jul-30 13:33N 29°60' W 089°59'0 0.0
2016-Jul-30 12:34N 29°60' W 089°59'0 0.2
2016-Jul-30 11:34N 30°00' W 089°59'  
Track history (hours):
 
Tides and Currents Weather Stations Pressure Air Temp Water Temp Dewpoint Dewpoint Depression Visibility Wind Speed Wind Dir Waves Ship Positions

Teddy Meyer

Owner: LeBeouf Bros. Towing, LLC, Houma, LA. More information available from US FCC via Universal Licensing System and Coast Guard Vessel Documentation Center.

Last reported at 2016-Aug-03 15:19 UTC. Time now 2016-Aug-27 08:12 UTC.
Position N 29°47' W 090°01'.
Warning: this ship's position is 23 days out of date.

; draft 3 m.

MMSI: 367507220.

Date/timePositionNaut miles runAvg speedWind from/ knotsBaromVisibWave heightAir tempDewpointWater temp
2016-Aug-03 15:19N 29°47' W 090°01'6 8.4
2016-Aug-03 14:34N 29°53' W 089°58'3 2.8
2016-Aug-03 13:34N 29°56' W 089°58'6 5.6
2016-Aug-03 12:34N 29°55' W 090°05'4 3.5
2016-Aug-03 11:33N 29°57' W 090°08'  
2016-Jul-31 18:29N 29°57' W 090°10'4 4.8
2016-Jul-31 17:33N 29°55' W 090°05'4 4.4
2016-Jul-31 16:34N 29°58' W 090°02'1 0.5
2016-Jul-31 15:34N 29°58' W 090°01'2 2.4
2016-Jul-31 14:33N 29°60' W 089°59'0 0.0
2016-Jul-31 13:33N 29°60' W 089°59'0 0.0
2016-Jul-31 12:33N 29°60' W 089°59'0 0.0
2016-Jul-31 11:33N 29°60' W 089°59'0 0.0
2016-Jul-31 10:34N 29°60' W 089°59'0 0.0
2016-Jul-31 09:33N 29°60' W 089°59'0 0.0
2016-Jul-31 08:34N 29°60' W 089°59'0 0.0
2016-Jul-31 07:34N 29°60' W 089°59'0 0.0
2016-Jul-31 06:33N 29°60' W 089°59'0 0.0
2016-Jul-31 05:34N 29°60' W 089°59'0 0.0
2016-Jul-31 04:33N 29°60' W 089°59'0 0.0
2016-Jul-31 03:34N 29°60' W 089°59'0 0.0
2016-Jul-31 02:34N 29°60' W 089°59'0 0.0
2016-Jul-31 01:33N 29°60' W 089°59'0 0.0
2016-Jul-31 00:33N 29°60' W 089°59'0 0.0
2016-Jul-30 22:33N 29°60' W 089°59'0 0.0
2016-Jul-30 21:34N 29°60' W 089°59'0 0.0
2016-Jul-30 20:33N 29°60' W 089°59'0 0.0
2016-Jul-30 19:34N 29°60' W 089°59'0 0.0
2016-Jul-30 18:33N 29°60' W 089°59'0 0.0
2016-Jul-30 17:34N 29°60' W 089°59'0 0.0
2016-Jul-30 16:34N 29°60' W 089°59'0 0.0
2016-Jul-30 15:33N 29°60' W 089°59'0 0.0
2016-Jul-30 14:34N 29°60' W 089°59'0 0.0
2016-Jul-30 13:33N 29°60' W 089°59'0 0.0
2016-Jul-30 12:34N 29°60' W 089°59'0 0.2
2016-Jul-30 11:34N 30°00' W 089°59'  

Dump ship's entire track history